Relevés horaires Zürich / Fluntern (Suisse)


Relevés horaires à Zürich / Fluntern - Jeudi 03 Juill. 2003
Heure UTC1 Température [°C] Vent [km/h] Hum. [%] Pres.4 [hPa] Visi. [Km] Nébu. [octa] Préc.5 [mm] Cond.
2m. Res. Ros. Dir.2 Vit. Moy. Raf.3
23:00 14.5 14.5 11.0 O 5.6 -- -- 80 1015.4 -- -- -- --
22:00 14.7 14.7 10.6 SSO 5.6 -- -- 76 1015.3 -- -- -- --
21:00 13.9 13.9 11.2 N 3.7 -- -- 84 1015.2 -- -- -- --
20:00 15.3 15.3 10.3 OSO 7.4 -- -- 72 1014.4 -- -- -- --
19:00 15.5 15.3 11.1 O 9.3 -- -- 75 1013.9 -- -- -- --
18:00 15.9 15.8 12.0 NNO 9.3 -- 50.0 78 1013.6(0.5/3h) 14 6/8 4/12h
Précipitations au loin
17:00 17.0 17.0 12.2 ONO 7.4 -- -- 73 1013.1 -- -- -- --
16:00 16.2 15.7 12.9 ONO 13.0 -- -- 81 1013.5 -- -- -- --
15:00 15.1 15.1 12.8 ONO 7.4 -- 50.0 86 1013.2(0.0/3h) 30 6/8 -- Averse de pluie
14:00 19.3 19.2 10.4 ONO 18.5 -- -- 56 1012 -- -- -- --
13:00 20.0 20.0 11.5 OSO 18.5 -- -- 58 1011.7 -- -- -- --
12:00 18.6 18 10.3 O 24.1 -- 48.2 58 1012.4(0.5/3h) 18 7/8 0.4/6h
Etat du ciel inchangé
11:00 14.9 13.5 11.8 OSO 20.4 -- -- 82 1013.2 -- -- -- --
10:00 14.1 13 11.1 O 14.8 -- -- 82 1013.2 -- -- -- --
09:00 15.1 14.6 11.3 OSO 11.1 -- -- 78 1012.7(0.7/3h) 9 7/8 -- Brouillard
08:00 14.5 13.5 12.7 O 14.8 -- -- 89 1012.7 -- -- -- --
07:00 13.5 12.4 12.5 O 13.0 -- -- 94 1012.8 -- -- -- --
06:00 13.3 12.2 12.1 O 13.0 -- 37.0 92 1012.1(1.1/3h) -- -- 9/12h
--
05:00 13.2 12.3 12.1 O 11.1 -- -- 93 1011.7 -- -- -- --
04:00 13.0 11.8 12.1 OSO 13.0 -- -- 94 1011.4 -- -- -- --
03:00 13.2 12.3 12.9 O 11.1 -- 37.0 98 1010.9(1.3/3h) -- -- -- --
02:00 13.4 13.4 13.0 ONO 3.7 -- -- 97 1010.4 -- -- -- --
01:00 13.9 12.7 12.4 O 14.8 -- -- 91 1010.7 -- -- -- --
00:00 16.6 16.6 10.0 O 9.3 -- -- 65 1008.7(-0.2/3h) -- -- -- --

1 Coordinated Universal Time. Actuellement il est 03:00 locale et 01:00 UTC.

2 Le vent souffle depuis la direction indiquée vers la direction oposée.

3 Les rafales max. sont disponible 40 min après l'heure du relevé.

4 Pour les stations d'altitude (plus de 600m) le géopotentiel du niveau le plus proche de la pression obligatoire est indiqué.

5 Les stations disposant d'un diffuseur peuvent indiquer "trace". Cela signifie que des précipitations ont touchés le sol mais que la quantité est inférieure à 0.1 mm.

Copyright

Les données affichées sur cette page sont la propriété exclusive de Météo Suisse.

Récapitulatif de la journée
Température [°C] Vent [km/h] Ensoleillement4 [h] Precipitations totale5 [mm] Pression [Hpa]
Min1 Max.2 Moy.3 Max. Min Max.
13.0 20.7 0 50.0 3 h 36 min 4 1008.7 1015.4

1 Température minimale relevée entre 18:00 UTC la veille et 18:00 UTC le jour donné.

2 Température maximale relevée entre 06:00 UTC le jour donné et 06:00 UTC le lendemain.

3 Vent moyen de la journée basé sur les relevés horaires.

4 Ensoleillement en heures relevé entre 06:00 UTC la veille et 06:00 UTC le jour donné.

5 Précipitations totales tombées entre 06:00 UTC la jour donné et 06:00 UTC le lendemain.

Graphiques horaires